Buoy 56916

sailwx.info

Track history (hours):
 
Tides and Currents Weather Stations Pressure Air Temp Water Temp Dewpoint Dewpoint Depression Visibility Wind Speed Wind Dir Waves Ship Positions

Drifting buoy 56916

Last reported at 2017-Aug-18 14:00 UTC. Time now 2017-Aug-18 16:14 UTC.
Position S 47°05' E 179°09'.

Barometer 996.7 mb
Water temperature 8.9 ° C

Date/timePositionNaut miles runAvg speedWind from/ knotsBaromVisibWave heightAir tempDewpointWater temp
2017-Aug-18 14:00S 47°05' E 179°09'2 1.7 996.7 8.9
2017-Aug-18 13:00S 47°06' E 179°11'1 0.6 996.9 8.9
2017-Aug-18 11:00S 47°05' E 179°10'1 0.7 997.6 8.9
2017-Aug-18 10:00S 47°04' E 179°10'1 1.3 998.1 8.9
2017-Aug-18 09:00S 47°03' E 179°09'1 0.4 998.2 8.9
2017-Aug-18 06:00S 47°02' E 179°08'0 0.0 998.5 9.1
2017-Aug-18 04:00S 47°02' E 179°08'1 1.0 998.3 9.2
2017-Aug-18 03:00S 47°01' E 179°07'0 0.0 998.1 9.3
2017-Aug-18 02:00S 47°01' E 179°07'2 0.6 998.3 9.3
2017-Aug-17 22:00S 47°01' E 179°04'1 0.7 999.6 9.3
2017-Aug-17 21:00S 47°01' E 179°04'1 1.2 999.7 9.3
2017-Aug-17 20:00S 47°01' E 179°02'1 0.7 999.3 9.3
2017-Aug-17 19:00S 47°00' E 179°02'0 0.0 999.1 9.3
2017-Aug-17 18:00S 47°00' E 179°02'0 0.0 999.2 9.3
2017-Aug-17 17:00S 47°00' E 179°02'0 0.4 999.6 9.4
2017-Aug-17 16:00S 47°00' E 179°01'1 0.7 999.3 9.4
2017-Aug-17 15:00S 46°59' E 179°01'0 0.0 999.2 9.4
2017-Aug-17 14:00S 46°59' E 179°01'1 0.4 999.1 9.3
2017-Aug-17 12:00S 47°00' E 179°00'0 0.0 999.4 9.2
2017-Aug-17 11:00S 47°00' E 179°00'1 1.4 999.2 9.0
2017-Aug-17 10:00S 46°59' E 178°58'1 0.6 998.8 9.0
2017-Aug-17 09:00S 47°00' E 178°58'2 1.0 998.8 9.0
2017-Aug-17 07:00S 46°59' E 178°56'1 0.7 998.2 9.0
2017-Aug-17 06:00S 46°58' E 178°55'1 0.7 998.3 9.1
2017-Aug-17 05:00S 46°58' E 178°55'1 1.0 998.2 9.2
2017-Aug-17 04:00S 46°57' E 178°53'1 0.7 997.9 9.2
2017-Aug-17 03:00S 46°56' E 178°53'0 0.0 998.2 9.3
2017-Aug-17 02:00S 46°56' E 178°53'4 0.9 998.7 9.3
2017-Aug-16 21:00S 46°52' E 178°52'3 1.5 1003.6 9.4
2017-Aug-16 19:00S 46°49' E 178°52'0 0.0 1005.3 9.5
2017-Aug-16 18:00S 46°49' E 178°52'1 1.2 1005.7 9.5
2017-Aug-16 17:00S 46°48' E 178°52'0 0.0 1005.9 9.5
2017-Aug-16 16:00S 46°48' E 178°52'1 1.0 1006.3 9.5
2017-Aug-16 15:00S 46°47' E 178°51'1 1.0 1007.3 9.5
2017-Aug-16 14:00S 46°47' E 178°50'0 0.0 1007.8 9.5
2017-Aug-16 12:00S 46°47' E 178°50'1 1.2 1008.2 9.6
2017-Aug-16 11:00S 46°47' E 178°48'0 0.0 1008.0 9.6
2017-Aug-16 10:00S 46°47' E 178°48'0 0.0 1008.0 9.6
2017-Aug-16 09:00S 46°47' E 178°48'2 2.1 1008.0 9.5
2017-Aug-16 08:00S 46°47' E 178°45'0 0.0 1007.7 9.5
2017-Aug-16 07:00S 46°47' E 178°45'0 0.4 1007.3 9.6
2017-Aug-16 06:00S 46°47' E 178°44'0 0.0 1006.4 9.5
2017-Aug-16 05:00S 46°47' E 178°44'0 0.4 1005.6 9.5
2017-Aug-16 04:00S 46°47' E 178°44'1 0.8 1005.0 9.6
2017-Aug-16 03:00S 46°47' E 178°43'0 0.0 1004.5 9.6
2017-Aug-16 02:00S 46°47' E 178°43'3 0.5 1004.3 9.6
2017-Aug-15 21:00S 46°46' E 178°39'1 0.7 1003.3 9.3
2017-Aug-15 20:00S 46°46' E 178°40'1 0.7 1002.9 9.2
2017-Aug-15 19:00S 46°47' E 178°39'0 0.2 1002.0 9.2
2017-Aug-15 17:00S 46°47' E 178°38'0 0.0 1000.4 9.2
2017-Aug-15 16:00S 46°47' E 178°38'1 1.0 999.5 9.2
2017-Aug-15 15:00S 46°47' E 178°37'0 0.0 998.7 9.2
2017-Aug-15 14:00S 46°47' E 178°37'1 1.4 998.1 9.2
2017-Aug-15 13:00S 46°48' E 178°35'1 0.6 997.2 9.2
2017-Aug-15 11:00S 46°48' E 178°37'1 0.7 996.4 9.3
2017-Aug-15 10:00S 46°47' E 178°37'1 0.6 996.5 9.3
2017-Aug-15 08:00S 46°46' E 178°37'1 0.3 997.5 9.3
2017-Aug-15 06:00S 46°46' E 178°37'1 0.6 998.0 9.4
2017-Aug-15 05:00S 46°45' E 178°37'0 0.4 998.0 9.5
2017-Aug-15 04:00S 46°45' E 178°38'1 0.7 998.2 9.5
2017-Aug-15 03:00S 46°44' E 178°37'0 0.0 998.8 9.5
2017-Aug-15 02:00S 46°44' E 178°37'3 0.9 999.0 9.5
2017-Aug-14 22:00S 46°41' E 178°35'1 0.6 1000.8 9.6
2017-Aug-14 20:00S 46°40' E 178°34'1 0.3 1000.8 9.6
2017-Aug-14 18:00S 46°40' E 178°34'1 0.8 1000.8 9.6
2017-Aug-14 17:00S 46°40' E 178°35'1 1.2 1001.4 9.6
2017-Aug-14 16:00S 46°38' E 178°35'0 0.0 1002.3 9.6
2017-Aug-14 15:00S 46°38' E 178°35'1 0.6 1003.2 9.6
2017-Aug-14 14:00S 46°38' E 178°35'0 0.0 1004.1 9.6
2017-Aug-14 13:00S 46°38' E 178°35'0 0.0 1004.8 9.6
2017-Aug-14 12:00S 46°38' E 178°35'1 0.4 1005.7 9.6
2017-Aug-14 10:00S 46°37' E 178°36'0 0.0 1007.2 9.6
2017-Aug-14 09:00S 46°37' E 178°36'1 1.0 1007.7 9.6
2017-Aug-14 08:00S 46°37' E 178°37'0 0.0 1008.1 9.6
2017-Aug-14 06:00S 46°37' E 178°37'0 0.4 1008.8 9.7
2017-Aug-14 05:00S 46°37' E 178°38'0 0.0 1009.1 9.6
2017-Aug-14 04:00S 46°37' E 178°38'0 0.4 1008.9 9.6
2017-Aug-14 03:00S 46°37' E 178°38'0 0.0 1009.7 9.6
2017-Aug-14 02:00S 46°37' E 178°38'1 0.3 1010.1 9.6
2017-Aug-13 22:00S 46°37' E 178°40'0 0.0 1012.5 9.6
2017-Aug-13 20:00S 46°37' E 178°40'1 1.4 1012.1 9.6
2017-Aug-13 19:00S 46°36' E 178°42'1 1.5 1011.2 9.6
2017-Aug-13 18:00S 46°37' E 178°41'1 0.5 1010.5 9.6
2017-Aug-13 16:00S 46°38' E 178°42'1 1.5 1010.2 9.5
2017-Aug-13 15:00S 46°39' E 178°41'1 1.3 1010.0 9.5
2017-Aug-13 14:00S 46°40' E 178°40'1 1.5 1009.6 9.5
2017-Aug-13 13:00S 46°41' E 178°39'0 0.0 1008.8 9.5
2017-Aug-13 11:00S 46°41' E 178°39'2 2.1 1007.6 9.6
2017-Aug-13 10:00S 46°41' E 178°36'0 0.0 1006.7 9.6
2017-Aug-13 09:00S 46°41' E 178°36'1 0.7 1005.8 9.6
2017-Aug-13 08:00S 46°42' E 178°35'1 0.8 1004.7 9.7
2017-Aug-13 07:00S 46°42' E 178°34'0 0.2 1003.8 9.7
2017-Aug-13 05:00S 46°42' E 178°34'2 1.6 1002.1 9.7
2017-Aug-13 04:00S 46°42' E 178°31'0 0.4 1001.0 9.6
2017-Aug-13 03:00S 46°42' E 178°31'5 0.9 1000.1 9.6
2017-Aug-12 22:00S 46°41' E 178°24'0 0.0 997.3 9.6
2017-Aug-12 21:00S 46°41' E 178°24'1 1.4 996.2 9.5
2017-Aug-12 20:00S 46°41' E 178°22'4 0.8 995.4 9.5
2017-Aug-12 15:00S 46°38' E 178°18'0 0.0 996.7 9.5
2017-Aug-12 14:00S 46°38' E 178°18'0 0.0 997.4 9.6
2017-Aug-12 13:00S 46°38' E 178°18'2 1.0 997.7 9.6
2017-Aug-12 11:00S 46°37' E 178°16'3 0.7 998.4 9.6
2017-Aug-12 07:00S 46°35' E 178°13'0 0.4 998.5 9.6
2017-Aug-12 06:00S 46°35' E 178°12'1 0.7 998.4 9.6
2017-Aug-12 05:00S 46°35' E 178°11'1 0.8 997.9 9.6
2017-Aug-12 04:00S 46°35' E 178°10'0 0.0 997.3 9.6
2017-Aug-12 03:00S 46°35' E 178°10'4 0.6 996.5 9.6
2017-Aug-11 21:00S 46°36' E 178°05'1 0.8 995.4 9.6
2017-Aug-11 20:00S 46°36' E 178°04'0 0.0 995.4 9.6
2017-Aug-11 19:00S 46°36' E 178°04'2 1.0 995.0 9.6
2017-Aug-11 17:00S 46°36' E 178°01'0 0.0 994.4 9.6
2017-Aug-11 15:00S 46°36' E 178°01'1 1.0 994.6 9.6
2017-Aug-11 14:00S 46°37' E 177°59'0 0.0 994.4 9.6
2017-Aug-11 13:00S 46°37' E 177°59'3 1.3 994.2 9.6
2017-Aug-11 11:00S 46°37' E 177°56'1 1.2 994.0 9.8
2017-Aug-11 10:00S 46°37' E 177°54'0 0.4 993.9 9.8
2017-Aug-11 09:00S 46°37' E 177°53'0 0.0 993.9 9.8
2017-Aug-11 08:00S 46°37' E 177°53'3 1.5 993.6 9.8
2017-Aug-11 06:00S 46°37' E 177°49'1 0.8 994.0 9.7
2017-Aug-11 05:00S 46°37' E 177°48'1 1.4 994.2 9.6
2017-Aug-11 04:00S 46°37' E 177°46'0 0.0 994.0 9.6
2017-Aug-11 03:00S 46°37' E 177°46'4 3.8 993.9 9.7
2017-Aug-11 02:00S 46°38' E 177°41'1 0.3 993.8 9.8
2017-Aug-10 21:00S 46°39' E 177°40'0 0.0 994.7 9.8
2017-Aug-10 20:00S 46°39' E 177°40'1 1.0 994.8 9.8
2017-Aug-10 19:00S 46°40' E 177°38'1 0.7 994.8 9.8
2017-Aug-10 18:00S 46°40' E 177°38'0 0.4 995.1 9.8
2017-Aug-10 17:00S 46°40' E 177°37'1 1.0 995.2 9.8
2017-Aug-10 16:00S 46°41' E 177°36'0 0.0 995.1 9.8
2017-Aug-10 15:00S 46°41' E 177°36'2 1.8 995.6 9.8
2017-Aug-10 14:00S 46°41' E 177°34'0 0.0 995.9 9.8
2017-Aug-10 13:00S 46°41' E 177°34'1 0.7 995.8 9.8
2017-Aug-10 11:00S 46°42' E 177°32'1 0.7 996.2 9.8
2017-Aug-10 10:00S 46°43' E 177°31'3 2.5 996.8 9.8
2017-Aug-10 09:00S 46°43' E 177°28'1 0.6 996.8 9.8
2017-Aug-10 07:00S 46°44' E 177°27'0 0.0 996.5 9.8
2017-Aug-10 06:00S 46°44' E 177°27'1 0.6 996.3 9.8
2017-Aug-10 05:00S 46°45' E 177°27'1 1.4 995.7 9.8
2017-Aug-10 04:00S 46°46' E 177°25'2 1.6 995.2 9.9
2017-Aug-10 03:00S 46°46' E 177°23'0 0.0 995.5 9.9
2017-Aug-10 02:00S 46°46' E 177°23'3 0.9 995.4 9.9
2017-Aug-09 22:00S 46°47' E 177°18'1 0.5 996.2 9.8
2017-Aug-09 20:00S 46°47' E 177°17'1 0.8 996.0 9.8
2017-Aug-09 19:00S 46°47' E 177°16'1 0.7 996.0 9.8
2017-Aug-09 18:00S 46°48' E 177°15'1 1.4 996.7 9.8
2017-Aug-09 17:00S 46°47' E 177°13'0 0.0 997.2 9.8
2017-Aug-09 16:00S 46°47' E 177°13'1 0.8 998.0 9.8
2017-Aug-09 15:00S 46°47' E 177°12'1 1.4 999.2 9.8
2017-Aug-09 14:00S 46°47' E 177°10'1 1.4 1000.4 9.8
2017-Aug-09 13:00S 46°47' E 177°12'1 0.2 1000.9 9.8
2017-Aug-09 10:00S 46°47' E 177°11'0 0.4 1003.2 9.8
2017-Aug-09 09:00S 46°47' E 177°11'0 0.2 1004.0 9.8
2017-Aug-09 07:00S 46°47' E 177°10'0 0.4 1005.6 9.8
2017-Aug-09 06:00S 46°47' E 177°11'1 0.7 1005.7 9.8
2017-Aug-09 05:00S 46°47' E 177°10'1 0.6 1005.8 9.7
2017-Aug-09 04:00S 46°48' E 177°10'1 1.0 1006.7 9.7
2017-Aug-09 03:00S 46°47' E 177°09'0 0.0 1007.3 9.7
2017-Aug-09 02:00S 46°47' E 177°09'1 0.2 1007.8 9.8
2017-Aug-08 22:00S 46°47' E 177°08'1 0.6 1010.3 9.8
2017-Aug-08 21:00S 46°48' E 177°08'0 0.0 1010.4 9.7
2017-Aug-08 20:00S 46°48' E 177°08'1 0.7 1010.3 9.6
2017-Aug-08 19:00S 46°47' E 177°08'1 0.7 1010.2 9.6
2017-Aug-08 18:00S 46°48' E 177°08'1 1.0 1010.5 9.6
2017-Aug-08 17:00S 46°49' E 177°07'0 0.0 1010.3 9.7
2017-Aug-08 16:00S 46°49' E 177°07'0 0.0 1010.6 9.7
2017-Aug-08 15:00S 46°49' E 177°07'3 2.5 1010.8 9.7
2017-Aug-08 14:00S 46°49' E 177°03'   1011.7 9.7
Track history (hours):
 
Tides and Currents Weather Stations Pressure Air Temp Water Temp Dewpoint Dewpoint Depression Visibility Wind Speed Wind Dir Waves Ship Positions

Drifting buoy 56916

Last reported at 2017-Aug-18 14:00 UTC. Time now 2017-Aug-18 16:14 UTC.
Position S 47°05' E 179°09'.

Barometer 996.7 mb
Water temperature 8.9 ° C

Date/timePositionNaut miles runAvg speedWind from/ knotsBaromVisibWave heightAir tempDewpointWater temp
2017-Aug-18 14:00S 47°05' E 179°09'2 1.7 996.7 8.9
2017-Aug-18 13:00S 47°06' E 179°11'1 0.6 996.9 8.9
2017-Aug-18 11:00S 47°05' E 179°10'1 0.7 997.6 8.9
2017-Aug-18 10:00S 47°04' E 179°10'1 1.3 998.1 8.9
2017-Aug-18 09:00S 47°03' E 179°09'1 0.4 998.2 8.9
2017-Aug-18 06:00S 47°02' E 179°08'0 0.0 998.5 9.1
2017-Aug-18 04:00S 47°02' E 179°08'1 1.0 998.3 9.2
2017-Aug-18 03:00S 47°01' E 179°07'0 0.0 998.1 9.3
2017-Aug-18 02:00S 47°01' E 179°07'2 0.6 998.3 9.3
2017-Aug-17 22:00S 47°01' E 179°04'1 0.7 999.6 9.3
2017-Aug-17 21:00S 47°01' E 179°04'1 1.2 999.7 9.3
2017-Aug-17 20:00S 47°01' E 179°02'1 0.7 999.3 9.3
2017-Aug-17 19:00S 47°00' E 179°02'0 0.0 999.1 9.3
2017-Aug-17 18:00S 47°00' E 179°02'0 0.0 999.2 9.3
2017-Aug-17 17:00S 47°00' E 179°02'0 0.4 999.6 9.4
2017-Aug-17 16:00S 47°00' E 179°01'1 0.7 999.3 9.4
2017-Aug-17 15:00S 46°59' E 179°01'0 0.0 999.2 9.4
2017-Aug-17 14:00S 46°59' E 179°01'1 0.4 999.1 9.3
2017-Aug-17 12:00S 47°00' E 179°00'0 0.0 999.4 9.2
2017-Aug-17 11:00S 47°00' E 179°00'1 1.4 999.2 9.0
2017-Aug-17 10:00S 46°59' E 178°58'1 0.6 998.8 9.0
2017-Aug-17 09:00S 47°00' E 178°58'2 1.0 998.8 9.0
2017-Aug-17 07:00S 46°59' E 178°56'1 0.7 998.2 9.0
2017-Aug-17 06:00S 46°58' E 178°55'1 0.7 998.3 9.1
2017-Aug-17 05:00S 46°58' E 178°55'1 1.0 998.2 9.2
2017-Aug-17 04:00S 46°57' E 178°53'1 0.7 997.9 9.2
2017-Aug-17 03:00S 46°56' E 178°53'0 0.0 998.2 9.3
2017-Aug-17 02:00S 46°56' E 178°53'4 0.9 998.7 9.3
2017-Aug-16 21:00S 46°52' E 178°52'3 1.5 1003.6 9.4
2017-Aug-16 19:00S 46°49' E 178°52'0 0.0 1005.3 9.5
2017-Aug-16 18:00S 46°49' E 178°52'1 1.2 1005.7 9.5
2017-Aug-16 17:00S 46°48' E 178°52'0 0.0 1005.9 9.5
2017-Aug-16 16:00S 46°48' E 178°52'1 1.0 1006.3 9.5
2017-Aug-16 15:00S 46°47' E 178°51'1 1.0 1007.3 9.5
2017-Aug-16 14:00S 46°47' E 178°50'0 0.0 1007.8 9.5
2017-Aug-16 12:00S 46°47' E 178°50'1 1.2 1008.2 9.6
2017-Aug-16 11:00S 46°47' E 178°48'0 0.0 1008.0 9.6
2017-Aug-16 10:00S 46°47' E 178°48'0 0.0 1008.0 9.6
2017-Aug-16 09:00S 46°47' E 178°48'2 2.1 1008.0 9.5
2017-Aug-16 08:00S 46°47' E 178°45'0 0.0 1007.7 9.5
2017-Aug-16 07:00S 46°47' E 178°45'0 0.4 1007.3 9.6
2017-Aug-16 06:00S 46°47' E 178°44'0 0.0 1006.4 9.5
2017-Aug-16 05:00S 46°47' E 178°44'0 0.4 1005.6 9.5
2017-Aug-16 04:00S 46°47' E 178°44'1 0.8 1005.0 9.6
2017-Aug-16 03:00S 46°47' E 178°43'0 0.0 1004.5 9.6
2017-Aug-16 02:00S 46°47' E 178°43'3 0.5 1004.3 9.6
2017-Aug-15 21:00S 46°46' E 178°39'1 0.7 1003.3 9.3
2017-Aug-15 20:00S 46°46' E 178°40'1 0.7 1002.9 9.2
2017-Aug-15 19:00S 46°47' E 178°39'0 0.2 1002.0 9.2
2017-Aug-15 17:00S 46°47' E 178°38'0 0.0 1000.4 9.2
2017-Aug-15 16:00S 46°47' E 178°38'1 1.0 999.5 9.2
2017-Aug-15 15:00S 46°47' E 178°37'0 0.0 998.7 9.2
2017-Aug-15 14:00S 46°47' E 178°37'1 1.4 998.1 9.2
2017-Aug-15 13:00S 46°48' E 178°35'1 0.6 997.2 9.2
2017-Aug-15 11:00S 46°48' E 178°37'1 0.7 996.4 9.3
2017-Aug-15 10:00S 46°47' E 178°37'1 0.6 996.5 9.3
2017-Aug-15 08:00S 46°46' E 178°37'1 0.3 997.5 9.3
2017-Aug-15 06:00S 46°46' E 178°37'1 0.6 998.0 9.4
2017-Aug-15 05:00S 46°45' E 178°37'0 0.4 998.0 9.5
2017-Aug-15 04:00S 46°45' E 178°38'1 0.7 998.2 9.5
2017-Aug-15 03:00S 46°44' E 178°37'0 0.0 998.8 9.5
2017-Aug-15 02:00S 46°44' E 178°37'3 0.9 999.0 9.5
2017-Aug-14 22:00S 46°41' E 178°35'1 0.6 1000.8 9.6
2017-Aug-14 20:00S 46°40' E 178°34'1 0.3 1000.8 9.6
2017-Aug-14 18:00S 46°40' E 178°34'1 0.8 1000.8 9.6
2017-Aug-14 17:00S 46°40' E 178°35'1 1.2 1001.4 9.6
2017-Aug-14 16:00S 46°38' E 178°35'0 0.0 1002.3 9.6
2017-Aug-14 15:00S 46°38' E 178°35'1 0.6 1003.2 9.6
2017-Aug-14 14:00S 46°38' E 178°35'0 0.0 1004.1 9.6
2017-Aug-14 13:00S 46°38' E 178°35'0 0.0 1004.8 9.6
2017-Aug-14 12:00S 46°38' E 178°35'1 0.4 1005.7 9.6
2017-Aug-14 10:00S 46°37' E 178°36'0 0.0 1007.2 9.6
2017-Aug-14 09:00S 46°37' E 178°36'1 1.0 1007.7 9.6
2017-Aug-14 08:00S 46°37' E 178°37'0 0.0 1008.1 9.6
2017-Aug-14 06:00S 46°37' E 178°37'0 0.4 1008.8 9.7
2017-Aug-14 05:00S 46°37' E 178°38'0 0.0 1009.1 9.6
2017-Aug-14 04:00S 46°37' E 178°38'0 0.4 1008.9 9.6
2017-Aug-14 03:00S 46°37' E 178°38'0 0.0 1009.7 9.6
2017-Aug-14 02:00S 46°37' E 178°38'1 0.3 1010.1 9.6
2017-Aug-13 22:00S 46°37' E 178°40'0 0.0 1012.5 9.6
2017-Aug-13 20:00S 46°37' E 178°40'1 1.4 1012.1 9.6
2017-Aug-13 19:00S 46°36' E 178°42'1 1.5 1011.2 9.6
2017-Aug-13 18:00S 46°37' E 178°41'1 0.5 1010.5 9.6
2017-Aug-13 16:00S 46°38' E 178°42'1 1.5 1010.2 9.5
2017-Aug-13 15:00S 46°39' E 178°41'1 1.3 1010.0 9.5
2017-Aug-13 14:00S 46°40' E 178°40'1 1.5 1009.6 9.5
2017-Aug-13 13:00S 46°41' E 178°39'0 0.0 1008.8 9.5
2017-Aug-13 11:00S 46°41' E 178°39'2 2.1 1007.6 9.6
2017-Aug-13 10:00S 46°41' E 178°36'0 0.0 1006.7 9.6
2017-Aug-13 09:00S 46°41' E 178°36'1 0.7 1005.8 9.6
2017-Aug-13 08:00S 46°42' E 178°35'1 0.8 1004.7 9.7
2017-Aug-13 07:00S 46°42' E 178°34'0 0.2 1003.8 9.7
2017-Aug-13 05:00S 46°42' E 178°34'2 1.6 1002.1 9.7
2017-Aug-13 04:00S 46°42' E 178°31'0 0.4 1001.0 9.6
2017-Aug-13 03:00S 46°42' E 178°31'5 0.9 1000.1 9.6
2017-Aug-12 22:00S 46°41' E 178°24'0 0.0 997.3 9.6
2017-Aug-12 21:00S 46°41' E 178°24'1 1.4 996.2 9.5
2017-Aug-12 20:00S 46°41' E 178°22'4 0.8 995.4 9.5
2017-Aug-12 15:00S 46°38' E 178°18'0 0.0 996.7 9.5
2017-Aug-12 14:00S 46°38' E 178°18'0 0.0 997.4 9.6
2017-Aug-12 13:00S 46°38' E 178°18'2 1.0 997.7 9.6
2017-Aug-12 11:00S 46°37' E 178°16'3 0.7 998.4 9.6
2017-Aug-12 07:00S 46°35' E 178°13'0 0.4 998.5 9.6
2017-Aug-12 06:00S 46°35' E 178°12'1 0.7 998.4 9.6
2017-Aug-12 05:00S 46°35' E 178°11'1 0.8 997.9 9.6
2017-Aug-12 04:00S 46°35' E 178°10'0 0.0 997.3 9.6
2017-Aug-12 03:00S 46°35' E 178°10'4 0.6 996.5 9.6
2017-Aug-11 21:00S 46°36' E 178°05'1 0.8 995.4 9.6
2017-Aug-11 20:00S 46°36' E 178°04'0 0.0 995.4 9.6
2017-Aug-11 19:00S 46°36' E 178°04'2 1.0 995.0 9.6
2017-Aug-11 17:00S 46°36' E 178°01'0 0.0 994.4 9.6
2017-Aug-11 15:00S 46°36' E 178°01'1 1.0 994.6 9.6
2017-Aug-11 14:00S 46°37' E 177°59'0 0.0 994.4 9.6
2017-Aug-11 13:00S 46°37' E 177°59'3 1.3 994.2 9.6
2017-Aug-11 11:00S 46°37' E 177°56'1 1.2 994.0 9.8
2017-Aug-11 10:00S 46°37' E 177°54'0 0.4 993.9 9.8
2017-Aug-11 09:00S 46°37' E 177°53'0 0.0 993.9 9.8
2017-Aug-11 08:00S 46°37' E 177°53'3 1.5 993.6 9.8
2017-Aug-11 06:00S 46°37' E 177°49'1 0.8 994.0 9.7
2017-Aug-11 05:00S 46°37' E 177°48'1 1.4 994.2 9.6
2017-Aug-11 04:00S 46°37' E 177°46'0 0.0 994.0 9.6
2017-Aug-11 03:00S 46°37' E 177°46'4 3.8 993.9 9.7
2017-Aug-11 02:00S 46°38' E 177°41'1 0.3 993.8 9.8
2017-Aug-10 21:00S 46°39' E 177°40'0 0.0 994.7 9.8
2017-Aug-10 20:00S 46°39' E 177°40'1 1.0 994.8 9.8
2017-Aug-10 19:00S 46°40' E 177°38'1 0.7 994.8 9.8
2017-Aug-10 18:00S 46°40' E 177°38'0 0.4 995.1 9.8
2017-Aug-10 17:00S 46°40' E 177°37'1 1.0 995.2 9.8
2017-Aug-10 16:00S 46°41' E 177°36'0 0.0 995.1 9.8
2017-Aug-10 15:00S 46°41' E 177°36'2 1.8 995.6 9.8
2017-Aug-10 14:00S 46°41' E 177°34'0 0.0 995.9 9.8
2017-Aug-10 13:00S 46°41' E 177°34'1 0.7 995.8 9.8
2017-Aug-10 11:00S 46°42' E 177°32'1 0.7 996.2 9.8
2017-Aug-10 10:00S 46°43' E 177°31'3 2.5 996.8 9.8
2017-Aug-10 09:00S 46°43' E 177°28'1 0.6 996.8 9.8
2017-Aug-10 07:00S 46°44' E 177°27'0 0.0 996.5 9.8
2017-Aug-10 06:00S 46°44' E 177°27'1 0.6 996.3 9.8
2017-Aug-10 05:00S 46°45' E 177°27'1 1.4 995.7 9.8
2017-Aug-10 04:00S 46°46' E 177°25'2 1.6 995.2 9.9
2017-Aug-10 03:00S 46°46' E 177°23'0 0.0 995.5 9.9
2017-Aug-10 02:00S 46°46' E 177°23'3 0.9 995.4 9.9
2017-Aug-09 22:00S 46°47' E 177°18'1 0.5 996.2 9.8
2017-Aug-09 20:00S 46°47' E 177°17'1 0.8 996.0 9.8
2017-Aug-09 19:00S 46°47' E 177°16'1 0.7 996.0 9.8
2017-Aug-09 18:00S 46°48' E 177°15'1 1.4 996.7 9.8
2017-Aug-09 17:00S 46°47' E 177°13'0 0.0 997.2 9.8
2017-Aug-09 16:00S 46°47' E 177°13'1 0.8 998.0 9.8
2017-Aug-09 15:00S 46°47' E 177°12'1 1.4 999.2 9.8
2017-Aug-09 14:00S 46°47' E 177°10'1 1.4 1000.4 9.8
2017-Aug-09 13:00S 46°47' E 177°12'1 0.2 1000.9 9.8
2017-Aug-09 10:00S 46°47' E 177°11'0 0.4 1003.2 9.8
2017-Aug-09 09:00S 46°47' E 177°11'0 0.2 1004.0 9.8
2017-Aug-09 07:00S 46°47' E 177°10'0 0.4 1005.6 9.8
2017-Aug-09 06:00S 46°47' E 177°11'1 0.7 1005.7 9.8
2017-Aug-09 05:00S 46°47' E 177°10'1 0.6 1005.8 9.7
2017-Aug-09 04:00S 46°48' E 177°10'1 1.0 1006.7 9.7
2017-Aug-09 03:00S 46°47' E 177°09'0 0.0 1007.3 9.7
2017-Aug-09 02:00S 46°47' E 177°09'1 0.2 1007.8 9.8
2017-Aug-08 22:00S 46°47' E 177°08'1 0.6 1010.3 9.8
2017-Aug-08 21:00S 46°48' E 177°08'0 0.0 1010.4 9.7
2017-Aug-08 20:00S 46°48' E 177°08'1 0.7 1010.3 9.6
2017-Aug-08 19:00S 46°47' E 177°08'1 0.7 1010.2 9.6
2017-Aug-08 18:00S 46°48' E 177°08'1 1.0 1010.5 9.6
2017-Aug-08 17:00S 46°49' E 177°07'0 0.0 1010.3 9.7
2017-Aug-08 16:00S 46°49' E 177°07'0 0.0 1010.6 9.7
2017-Aug-08 15:00S 46°49' E 177°07'3 2.5 1010.8 9.7
2017-Aug-08 14:00S 46°49' E 177°03'   1011.7 9.7

Dump ship's entire track history